Flight Track Log - Related Links

Times and Time Zones

All times are in EDT time to prevent confusion due to time zone crossing. See the ASQ5874 flight status page for this flight to view local times or setup timezone preferences in your user account.

Time Position Orientation Groundspeed Altitude Reporting Facility
EDT Latitude Longitude Course Direction KTS MPH feet Rate Location/Type
Mon 07:00:49 AM 37.6325 -97.4317 15° North 164 189 2,000  Level Kansas City Center
Mon 07:00:55 AM 37.6286 -97.4350 214° Southwest 152 175 2,300 2,182 Climbing Kansas City Center
Mon 07:01:55 AM 37.6044 -97.4889 241° Southwest 183 211 4,400 1,953 Climbing Kansas City Center
Mon 07:02:21 AM 37.6039 -97.5097 268° West 199 229 5,100 1,967 Climbing Kansas City Center
Mon 07:02:56 AM 37.6272 -97.5514 305° West 249 287 6,400 1,645 Climbing Kansas City Center
Mon 07:03:23 AM 37.6692 -97.5503 North 252 290 6,800 1,618 Climbing Kansas City Center
Mon 07:04:00 AM 37.8489 -97.0528 25° Northeast  Level Estimated
Mon 07:04:25 AM 37.7539 -97.5214 15° North 293 337 8,800  Level Kansas City Center
Mon 07:05:00 AM 37.9361 -97.0821 345° North  Level FlightAware Approximate
Mon 07:05:25 AM 37.8361 -97.4919 16° North 310 357 10,500  Level Kansas City Center
Mon 07:06:00 AM 37.9849 -96.9859 15° North  Level Estimated
Mon 07:06:22 AM 37.9289 -97.4575 16° North 346 398 11,400  Level Kansas City Center
Mon 07:07:23 AM 37.9964 -97.3658 47° Northeast 359 413 12,500 1,024 Climbing Kansas City Center
Mon 07:08:25 AM 38.0539 -97.2547 57° Northeast 374 430 13,500 1,024 Climbing Kansas City Center
Mon 07:09:26 AM 38.1114 -97.1414 57° Northeast 383 441 14,600 1,050 Climbing Kansas City Center
Mon 07:10:25 AM 38.1708 -97.0261 57° Northeast 391 450 15,600 1,050 Climbing Kansas City Center
Mon 07:11:26 AM 38.2292 -96.9086 58° Northeast 393 452 16,700 1,033 Climbing Kansas City Center
Mon 07:12:27 AM 38.2894 -96.7903 57° Northeast 398 458 17,700 1,100 Climbing Kansas City Center
Mon 07:13:26 AM 38.3486 -96.6697 58° Northeast 401 461 18,900 1,160 Climbing Kansas City Center
Mon 07:14:26 AM 38.4100 -96.5483 57° Northeast 406 467 20,000 1,073 Climbing Kansas City Center
Mon 07:15:29 AM 38.4753 -96.4156 58° Northeast 412 474 21,100 1,041 Climbing Kansas City Center
Mon 07:16:27 AM 38.5353 -96.2956 57° Northeast 419 482 22,100 1,008 Climbing Kansas City Center
Mon 07:17:28 AM 38.5942 -96.1739 58° Northeast 421 484 23,100 1,082 Climbing Kansas City Center
Mon 07:18:29 AM 38.6628 -96.0322 58° Northeast 422 486 24,300 1,100 Climbing Kansas City Center
Mon 07:19:28 AM 38.7225 -95.9103 58° Northeast 422 486 25,300 976 Climbing Kansas City Center
Mon 07:20:32 AM 38.7822 -95.7883 58° Northeast 423 487 26,300 1,065 Climbing Kansas City Center
Mon 07:21:32 AM 38.8517 -95.6458 58° Northeast 422 486 27,500 1,059 Climbing Kansas City Center
Mon 07:22:31 AM 38.9106 -95.5239 58° Northeast 420 483 28,400 984 Climbing Kansas City Center
Mon 07:23:34 AM 38.9689 -95.4025 58° Northeast 419 482 29,500 1,122 Climbing Kansas City Center
Mon 07:24:34 AM 39.0392 -95.2533 59° Northeast 422 486 30,700 1,091 Climbing Kansas City Center
Mon 07:25:35 AM 39.1019 -95.1231 58° Northeast 428 493 31,700 1,033 Climbing Kansas City Center
Mon 07:26:36 AM 39.1639 -94.9917 59° Northeast 432 497 32,800 984 Climbing Kansas City Center
Mon 07:27:37 AM 39.2233 -94.8681 58° Northeast 428 493 33,700 942 Climbing Kansas City Center
Mon 07:28:37 AM 39.2831 -94.7411 59° Northeast 431 496 34,700 661 Climbing Kansas City Center
Mon 07:29:35 AM 39.3481 -94.5872 61° Northeast 442 509 35,000 148 Climbing Kansas City Center
Mon 07:30:39 AM 39.4050 -94.4464 62° Northeast 458 527 35,000  Level Kansas City Center
Mon 07:31:37 AM 39.4642 -94.2994 62° Northeast 479 551 35,000  Level Kansas City Center
Mon 07:32:39 AM 39.5356 -94.1219 62° Northeast 496 571 35,000  Level Kansas City Center
Mon 07:33:41 AM 39.5981 -93.9678 62° Northeast 504 580 35,000  Level Kansas City Center
Mon 07:34:42 AM 39.6594 -93.8131 63° Northeast 504 580 35,000  Level Kansas City Center
Mon 07:35:42 AM 39.7300 -93.6308 63° Northeast 504 580 35,000  Level Kansas City Center
Mon 07:36:41 AM 39.7928 -93.4722 63° Northeast 501 577 35,000  Level Kansas City Center
Mon 07:37:44 AM 39.8572 -93.3114 62° Northeast 504 580 35,000  Level Kansas City Center
Mon 07:38:42 AM 39.9200 -93.1517 63° Northeast 501 577 35,000  Level Kansas City Center
Mon 07:39:46 AM 39.9806 -92.9922 64° Northeast 499 574 35,000  Level Kansas City Center
Mon 07:40:47 AM 40.0406 -92.8350 63° Northeast 492 566 35,000  Level Kansas City Center
Mon 07:41:48 AM 40.1075 -92.6586 64° Northeast 490 564 35,000  Level Kansas City Center
Mon 07:42:48 AM 40.1650 -92.5033 64° Northeast 494 568 35,000  Level Kansas City Center
Mon 07:43:47 AM 40.2283 -92.3314 64° Northeast 495 570 35,000  Level Kansas City Center
Mon 07:44:50 AM 40.2861 -92.1733 64° Northeast 492 566 35,000  Level Kansas City Center
Mon 07:45:50 AM 40.3431 -92.0125 65° Northeast 493 567 35,000 -49 Level Kansas City Center
Mon 07:46:52 AM 40.4000 -91.8519 65° Northeast 492 566 34,900 -829 Descending Kansas City Center
Mon 07:47:53 AM 40.4567 -91.6914 65° Northeast 490 564 33,300 -1,650 Descending Kansas City Center
Mon 07:48:52 AM 40.5092 -91.5339 66° East 481 554 31,600 -1,131 Descending Kansas City Center
Mon 07:49:55 AM 40.5617 -91.3775 66° East 475 547 31,000 -290 Descending Kansas City Center
Mon 07:50:56 AM 40.6203 -91.2083 65° Northeast 471 542 31,000  Level Kansas City Center
Mon 07:51:26 AM 40.6533 -91.1156 65° Northeast 471 542 31,000  Level Chicago Center
Mon 07:52:27 AM 40.7058 -90.9581 66° East 469 540 31,000  Level Chicago Center
Mon 07:53:29 AM 40.7600 -90.8017 65° Northeast 468 539 31,000  Level Chicago Center
Mon 07:54:31 AM 40.8128 -90.6433 66° East 469 540 31,000  Level Chicago Center
Mon 07:55:32 AM 40.8658 -90.4836 66° East 466 536 31,000  Level Chicago Center
Mon 07:56:34 AM 40.9186 -90.3281 66° East 468 539 31,000 -146 Level Chicago Center
Mon 07:57:35 AM 40.9797 -90.1389 67° East 466 536 30,700 -1,122 Descending Chicago Center
Mon 07:58:37 AM 41.0347 -89.9778 66° East 469 540 28,700 -2,081 Descending Chicago Center
Mon 07:59:39 AM 41.0872 -89.8183 66° East 468 539 26,400 -2,146 Descending Chicago Center
Mon 08:00:40 AM 41.1389 -89.6589 67° East 468 539 24,300 -2,000 Descending Chicago Center
Mon 08:01:42 AM 41.1944 -89.5056 64° Northeast 459 528 22,300 -2,419 Descending Chicago Center
Mon 08:02:44 AM 41.2539 -89.3631 61° Northeast 444 511 19,300 -2,710 Descending Chicago Center
Mon 08:03:46 AM 41.3078 -89.2267 62° Northeast 422 486 16,700 -2,585 Descending Chicago Center
Mon 08:04:47 AM 41.3656 -89.0792 62° Northeast 401 461 14,000 -2,341 Descending Chicago Center
Mon 08:05:49 AM 41.4164 -88.9517 62° Northeast 390 449 11,900 -1,403 Descending Chicago Center
Mon 08:06:51 AM 41.4653 -88.8278 62° Northeast 380 437 11,100 -435 Descending Chicago Center
Mon 08:07:53 AM 41.5150 -88.7044 62° Northeast 379 436 11,000 -48 Descending Chicago Center
Mon 08:08:55 AM 41.5561 -88.5983 63° Northeast 322 371 11,000 -390 Level Chicago Center
Mon 08:09:56 AM 41.5953 -88.5000 62° Northeast 299 344 10,200 -1,171 Descending Chicago Center
Mon 08:10:58 AM 41.6397 -88.4158 55° Northeast 279 321 8,600 -1,065 Descending Chicago Center
Mon 08:12:00 AM 41.7011 -88.3306 46° Northeast 264 304 8,000 -726 Descending Chicago Center
Mon 08:13:02 AM 41.7722 -88.2986 19° North 266 306 7,100 -726 Descending Chicago Center
Mon 08:14:04 AM 41.8428 -88.2650 20° North 267 307 6,500 -1,113 Descending Chicago Center
Mon 08:15:06 AM 41.9108 -88.2356 18° North 262 302 4,800 -1,210 Descending Chicago Center
Mon 08:16:08 AM 41.9519 -88.1667 51° Northeast 260 299 4,000 -516 Descending Chicago Center
Mon 08:16:39 AM 41.9667 -88.1167 68° East 219 252 4,000 -1,121 Level Chicago TRACON
Mon 08:17:39 AM 41.9667 -88.0333 90° East 193 222 2,300 -1,200 Descending Chicago TRACON
Mon 08:18:39 AM 41.9667 -87.9833 90° East 126 145 1,600 -700 Descending Chicago TRACON
Mon 08:19:39 AM 41.9667 -87.9500 90° East 126 145 900 -700 Descending Chicago TRACON

Login

Don't have an account? Register now (free) for customized features, flight alerts, and more!